sensor_id;sensor_type;location;lat;lon;timestamp;P1;durP1;ratioP1;P2;durP2;ratioP2
14945;SDS011;7567;50.916;6.900;2022-09-30T00:01:04;6.80;;;5.07;;
14945;SDS011;7567;50.916;6.900;2022-09-30T00:03:30;5.70;;;4.60;;
14945;SDS011;7567;50.916;6.900;2022-09-30T00:05:59;6.93;;;4.80;;
14945;SDS011;7567;50.916;6.900;2022-09-30T00:08:27;5.33;;;4.83;;
14945;SDS011;7567;50.916;6.900;2022-09-30T00:10:59;4.80;;;4.30;;
14945;SDS011;7567;50.916;6.900;2022-09-30T00:13:31;7.27;;;4.70;;
14945;SDS011;7567;50.916;6.900;2022-09-30T00:15:57;5.13;;;4.70;;
14945;SDS011;7567;50.916;6.900;2022-09-30T00:18:23;6.90;;;4.83;;
14945;SDS011;7567;50.916;6.900;2022-09-30T00:20:49;5.17;;;4.60;;
14945;SDS011;7567;50.916;6.900;2022-09-30T00:23:17;6.00;;;4.70;;
14945;SDS011;7567;50.916;6.900;2022-09-30T00:25:43;6.57;;;4.33;;
14945;SDS011;7567;50.916;6.900;2022-09-30T00:28:09;4.87;;;4.43;;
14945;SDS011;7567;50.916;6.900;2022-09-30T00:30:34;4.70;;;4.20;;
14945;SDS011;7567;50.916;6.900;2022-09-30T00:33:00;6.47;;;4.67;;
14945;SDS011;7567;50.916;6.900;2022-09-30T00:35:26;6.20;;;5.10;;
14945;SDS011;7567;50.916;6.900;2022-09-30T00:37:52;5.20;;;4.57;;
14945;SDS011;7567;50.916;6.900;2022-09-30T00:40:19;5.13;;;4.70;;
14945;SDS011;7567;50.916;6.900;2022-09-30T00:42:45;5.80;;;4.70;;
14945;SDS011;7567;50.916;6.900;2022-09-30T00:45:11;5.20;;;4.63;;
14945;SDS011;7567;50.916;6.900;2022-09-30T00:47:48;8.00;;;4.67;;
14945;SDS011;7567;50.916;6.900;2022-09-30T00:50:34;5.37;;;4.60;;
14945;SDS011;7567;50.916;6.900;2022-09-30T00:53:13;6.33;;;4.90;;
14945;SDS011;7567;50.916;6.900;2022-09-30T00:55:45;5.33;;;4.83;;
14945;SDS011;7567;50.916;6.900;2022-09-30T00:58:15;4.97;;;4.47;;
14945;SDS011;7567;50.916;6.900;2022-09-30T01:00:46;4.83;;;4.43;;
14945;SDS011;7567;50.916;6.900;2022-09-30T01:03:14;6.30;;;5.00;;
14945;SDS011;7567;50.916;6.900;2022-09-30T01:05:40;5.27;;;4.50;;
14945;SDS011;7567;50.916;6.900;2022-09-30T01:08:06;5.20;;;4.70;;
14945;SDS011;7567;50.916;6.900;2022-09-30T01:10:33;6.10;;;4.40;;
14945;SDS011;7567;50.916;6.900;2022-09-30T01:12:59;8.00;;;4.73;;
14945;SDS011;7567;50.916;6.900;2022-09-30T01:15:29;4.60;;;4.17;;
14945;SDS011;7567;50.916;6.900;2022-09-30T01:18:10;5.77;;;4.53;;
14945;SDS011;7567;50.916;6.900;2022-09-30T01:32:20;6.83;;;4.80;;
14945;SDS011;7567;50.916;6.900;2022-09-30T01:37:44;4.40;;;4.03;;
14945;SDS011;7567;50.916;6.900;2022-09-30T01:40:24;5.17;;;4.40;;
14945;SDS011;7567;50.916;6.900;2022-09-30T01:43:02;5.20;;;4.30;;
14945;SDS011;7567;50.916;6.900;2022-09-30T01:45:39;5.23;;;4.73;;
14945;SDS011;7567;50.916;6.900;2022-09-30T01:48:17;4.80;;;4.40;;
14945;SDS011;7567;50.916;6.900;2022-09-30T01:53:45;7.37;;;4.70;;
14945;SDS011;7567;50.916;6.900;2022-09-30T01:56:38;5.73;;;4.73;;
14945;SDS011;7567;50.916;6.900;2022-09-30T01:59:14;4.20;;;3.80;;
14945;SDS011;7567;50.916;6.900;2022-09-30T02:04:23;4.47;;;4.07;;
14945;SDS011;7567;50.916;6.900;2022-09-30T02:06:59;6.00;;;4.70;;
14945;SDS011;7567;50.916;6.900;2022-09-30T02:12:09;5.27;;;4.57;;
14945;SDS011;7567;50.916;6.900;2022-09-30T02:14:41;5.20;;;4.20;;
14945;SDS011;7567;50.916;6.900;2022-09-30T02:17:16;6.17;;;4.77;;
14945;SDS011;7567;50.916;6.900;2022-09-30T02:19:50;5.70;;;4.53;;
14945;SDS011;7567;50.916;6.900;2022-09-30T02:22:25;5.20;;;4.70;;
14945;SDS011;7567;50.916;6.900;2022-09-30T02:25:34;5.20;;;4.70;;
14945;SDS011;7567;50.916;6.900;2022-09-30T02:28:04;4.87;;;4.40;;
14945;SDS011;7567;50.916;6.900;2022-09-30T02:30:34;4.47;;;4.07;;
14945;SDS011;7567;50.916;6.900;2022-09-30T02:33:07;5.30;;;4.60;;
14945;SDS011;7567;50.916;6.900;2022-09-30T02:35:37;6.87;;;4.87;;
14945;SDS011;7567;50.916;6.900;2022-09-30T02:38:15;6.67;;;4.63;;
14945;SDS011;7567;50.916;6.900;2022-09-30T02:41:00;5.37;;;4.50;;
14945;SDS011;7567;50.916;6.900;2022-09-30T02:43:34;4.93;;;4.30;;
14945;SDS011;7567;50.916;6.900;2022-09-30T02:46:06;5.00;;;4.60;;
14945;SDS011;7567;50.916;6.900;2022-09-30T02:51:18;6.27;;;4.70;;
14945;SDS011;7567;50.916;6.900;2022-09-30T02:54:12;4.60;;;4.20;;
14945;SDS011;7567;50.916;6.900;2022-09-30T02:59:22;6.10;;;5.33;;
14945;SDS011;7567;50.916;6.900;2022-09-30T03:01:50;6.40;;;5.27;;
14945;SDS011;7567;50.916;6.900;2022-09-30T03:04:21;4.50;;;4.10;;
14945;SDS011;7567;50.916;6.900;2022-09-30T03:06:49;5.73;;;4.17;;
14945;SDS011;7567;50.916;6.900;2022-09-30T03:09:15;5.27;;;4.30;;
14945;SDS011;7567;50.916;6.900;2022-09-30T03:11:41;4.87;;;4.40;;
14945;SDS011;7567;50.916;6.900;2022-09-30T03:25:43;4.80;;;4.40;;
14945;SDS011;7567;50.916;6.900;2022-09-30T03:31:16;5.00;;;4.60;;
14945;SDS011;7567;50.916;6.900;2022-09-30T03:33:52;5.93;;;4.83;;
14945;SDS011;7567;50.916;6.900;2022-09-30T03:37:08;8.20;;;4.50;;
14945;SDS011;7567;50.916;6.900;2022-09-30T03:42:37;6.37;;;4.90;;
14945;SDS011;7567;50.916;6.900;2022-09-30T03:45:10;5.10;;;4.60;;
14945;SDS011;7567;50.916;6.900;2022-09-30T03:47:44;4.90;;;4.40;;
14945;SDS011;7567;50.916;6.900;2022-09-30T03:50:15;4.93;;;4.37;;
14945;SDS011;7567;50.916;6.900;2022-09-30T03:52:44;5.30;;;4.70;;
14945;SDS011;7567;50.916;6.900;2022-09-30T03:55:11;7.33;;;4.67;;
14945;SDS011;7567;50.916;6.900;2022-09-30T03:57:37;4.37;;;3.97;;
14945;SDS011;7567;50.916;6.900;2022-09-30T04:00:04;5.90;;;4.20;;
14945;SDS011;7567;50.916;6.900;2022-09-30T04:02:31;5.70;;;4.37;;
14945;SDS011;7567;50.916;6.900;2022-09-30T04:04:57;5.00;;;4.50;;
14945;SDS011;7567;50.916;6.900;2022-09-30T04:07:23;6.23;;;5.60;;
14945;SDS011;7567;50.916;6.900;2022-09-30T04:09:49;5.73;;;4.73;;
14945;SDS011;7567;50.916;6.900;2022-09-30T04:12:15;5.33;;;4.23;;
14945;SDS011;7567;50.916;6.900;2022-09-30T04:14:40;5.00;;;4.60;;
14945;SDS011;7567;50.916;6.900;2022-09-30T04:17:06;5.00;;;4.50;;
14945;SDS011;7567;50.916;6.900;2022-09-30T04:19:32;4.83;;;4.33;;
14945;SDS011;7567;50.916;6.900;2022-09-30T04:22:04;5.50;;;4.97;;
14945;SDS011;7567;50.916;6.900;2022-09-30T04:24:33;5.07;;;4.30;;
14945;SDS011;7567;50.916;6.900;2022-09-30T04:26:59;5.80;;;4.50;;
14945;SDS011;7567;50.916;6.900;2022-09-30T04:29:25;5.03;;;4.53;;
14945;SDS011;7567;50.916;6.900;2022-09-30T04:31:51;6.77;;;4.77;;
14945;SDS011;7567;50.916;6.900;2022-09-30T04:34:17;4.77;;;4.33;;
14945;SDS011;7567;50.916;6.900;2022-09-30T04:36:43;5.90;;;4.40;;
14945;SDS011;7567;50.916;6.900;2022-09-30T04:39:09;5.07;;;4.57;;
14945;SDS011;7567;50.916;6.900;2022-09-30T04:41:35;6.57;;;4.90;;
14945;SDS011;7567;50.916;6.900;2022-09-30T04:44:00;5.27;;;4.77;;
14945;SDS011;7567;50.916;6.900;2022-09-30T04:46:32;5.77;;;5.20;;
14945;SDS011;7567;50.916;6.900;2022-09-30T04:49:01;5.40;;;4.90;;
14945;SDS011;7567;50.916;6.900;2022-09-30T04:51:28;6.47;;;4.80;;
14945;SDS011;7567;50.916;6.900;2022-09-30T04:53:54;4.97;;;4.40;;
14945;SDS011;7567;50.916;6.900;2022-09-30T04:56:20;5.97;;;4.77;;
14945;SDS011;7567;50.916;6.900;2022-09-30T04:58:48;4.73;;;4.33;;
14945;SDS011;7567;50.916;6.900;2022-09-30T05:01:15;7.60;;;4.50;;
14945;SDS011;7567;50.916;6.900;2022-09-30T05:03:42;9.33;;;4.90;;
14945;SDS011;7567;50.916;6.900;2022-09-30T05:06:11;6.00;;;4.85;;
14945;SDS011;7567;50.916;6.900;2022-09-30T05:08:38;6.17;;;4.97;;
14945;SDS011;7567;50.916;6.900;2022-09-30T05:11:05;8.23;;;5.20;;
14945;SDS011;7567;50.916;6.900;2022-09-30T05:13:38;5.70;;;4.93;;
14945;SDS011;7567;50.916;6.900;2022-09-30T05:16:05;5.07;;;4.37;;
14945;SDS011;7567;50.916;6.900;2022-09-30T05:18:32;6.60;;;5.30;;
14945;SDS011;7567;50.916;6.900;2022-09-30T05:20:58;7.30;;;5.13;;
14945;SDS011;7567;50.916;6.900;2022-09-30T05:23:26;6.43;;;5.20;;
14945;SDS011;7567;50.916;6.900;2022-09-30T05:25:52;5.72;;;5.18;;
14945;SDS011;7567;50.916;6.900;2022-09-30T05:28:18;4.77;;;4.27;;
14945;SDS011;7567;50.916;6.900;2022-09-30T05:30:44;7.13;;;4.83;;
14945;SDS011;7567;50.916;6.900;2022-09-30T05:33:11;6.10;;;5.20;;
14945;SDS011;7567;50.916;6.900;2022-09-30T05:35:38;6.40;;;4.97;;
14945;SDS011;7567;50.916;6.900;2022-09-30T05:38:05;6.90;;;5.27;;
14945;SDS011;7567;50.916;6.900;2022-09-30T05:40:32;6.30;;;5.27;;
14945;SDS011;7567;50.916;6.900;2022-09-30T05:42:58;5.77;;;4.60;;
14945;SDS011;7567;50.916;6.900;2022-09-30T05:45:24;5.57;;;5.00;;
14945;SDS011;7567;50.916;6.900;2022-09-30T05:47:51;7.37;;;5.23;;
14945;SDS011;7567;50.916;6.900;2022-09-30T05:50:20;7.63;;;5.63;;
14945;SDS011;7567;50.916;6.900;2022-09-30T05:52:47;5.73;;;5.13;;
14945;SDS011;7567;50.916;6.900;2022-09-30T05:55:14;6.57;;;4.90;;
14945;SDS011;7567;50.916;6.900;2022-09-30T05:57:40;7.97;;;5.87;;
14945;SDS011;7567;50.916;6.900;2022-09-30T06:00:07;8.40;;;5.97;;
14945;SDS011;7567;50.916;6.900;2022-09-30T06:02:34;7.70;;;5.23;;
14945;SDS011;7567;50.916;6.900;2022-09-30T06:05:14;7.97;;;6.03;;
14945;SDS011;7567;50.916;6.900;2022-09-30T06:07:40;6.87;;;5.80;;
14945;SDS011;7567;50.916;6.900;2022-09-30T06:10:07;7.77;;;6.00;;
14945;SDS011;7567;50.916;6.900;2022-09-30T06:12:36;7.63;;;6.60;;
14945;SDS011;7567;50.916;6.900;2022-09-30T06:15:04;10.53;;;7.07;;
14945;SDS011;7567;50.916;6.900;2022-09-30T06:17:30;8.73;;;7.13;;
14945;SDS011;7567;50.916;6.900;2022-09-30T06:19:56;8.80;;;7.30;;
14945;SDS011;7567;50.916;6.900;2022-09-30T06:22:22;12.47;;;8.27;;
14945;SDS011;7567;50.916;6.900;2022-09-30T06:24:47;12.73;;;8.73;;
14945;SDS011;7567;50.916;6.900;2022-09-30T06:27:13;14.60;;;10.13;;
14945;SDS011;7567;50.916;6.900;2022-09-30T06:29:39;15.80;;;10.60;;
14945;SDS011;7567;50.916;6.900;2022-09-30T06:32:05;37.10;;;12.83;;
14945;SDS011;7567;50.916;6.900;2022-09-30T06:34:31;18.07;;;12.37;;
14945;SDS011;7567;50.916;6.900;2022-09-30T06:36:58;21.63;;;12.40;;
14945;SDS011;7567;50.916;6.900;2022-09-30T06:39:23;20.40;;;14.40;;
14945;SDS011;7567;50.916;6.900;2022-09-30T06:41:51;20.27;;;13.67;;
14945;SDS011;7567;50.916;6.900;2022-09-30T06:44:18;17.17;;;13.47;;
14945;SDS011;7567;50.916;6.900;2022-09-30T06:46:44;20.57;;;14.80;;
14945;SDS011;7567;50.916;6.900;2022-09-30T06:49:10;31.93;;;14.90;;
14945;SDS011;7567;50.916;6.900;2022-09-30T06:51:35;38.93;;;15.30;;
14945;SDS011;7567;50.916;6.900;2022-09-30T06:54:01;21.90;;;14.30;;
14945;SDS011;7567;50.916;6.900;2022-09-30T06:56:27;39.57;;;16.40;;
14945;SDS011;7567;50.916;6.900;2022-09-30T06:58:53;26.40;;;16.37;;
14945;SDS011;7567;50.916;6.900;2022-09-30T07:01:21;26.23;;;16.70;;
14945;SDS011;7567;50.916;6.900;2022-09-30T07:03:48;25.67;;;17.37;;
14945;SDS011;7567;50.916;6.900;2022-09-30T07:06:19;26.30;;;18.93;;
14945;SDS011;7567;50.916;6.900;2022-09-30T07:08:45;26.00;;;17.37;;
14945;SDS011;7567;50.916;6.900;2022-09-30T07:11:12;40.57;;;19.70;;
14945;SDS011;7567;50.916;6.900;2022-09-30T07:13:44;32.80;;;19.60;;
14945;SDS011;7567;50.916;6.900;2022-09-30T07:16:11;29.27;;;18.97;;
14945;SDS011;7567;50.916;6.900;2022-09-30T07:18:39;39.13;;;20.23;;
14945;SDS011;7567;50.916;6.900;2022-09-30T07:21:09;27.23;;;18.77;;
14945;SDS011;7567;50.916;6.900;2022-09-30T07:23:37;32.47;;;20.90;;
14945;SDS011;7567;50.916;6.900;2022-09-30T07:26:11;39.03;;;21.60;;
14945;SDS011;7567;50.916;6.900;2022-09-30T07:28:37;36.37;;;21.50;;
14945;SDS011;7567;50.916;6.900;2022-09-30T07:31:08;31.60;;;21.73;;
14945;SDS011;7567;50.916;6.900;2022-09-30T07:33:36;45.67;;;23.87;;
14945;SDS011;7567;50.916;6.900;2022-09-30T07:36:03;26.57;;;21.60;;
14945;SDS011;7567;50.916;6.900;2022-09-30T07:38:33;46.63;;;24.90;;
14945;SDS011;7567;50.916;6.900;2022-09-30T07:41:02;32.47;;;23.87;;
14945;SDS011;7567;50.916;6.900;2022-09-30T07:43:34;68.47;;;26.50;;
14945;SDS011;7567;50.916;6.900;2022-09-30T07:46:14;30.40;;;24.63;;
14945;SDS011;7567;50.916;6.900;2022-09-30T07:48:44;33.63;;;26.10;;
14945;SDS011;7567;50.916;6.900;2022-09-30T07:51:14;28.90;;;24.63;;
14945;SDS011;7567;50.916;6.900;2022-09-30T07:53:58;32.60;;;25.13;;
14945;SDS011;7567;50.916;6.900;2022-09-30T07:56:26;34.37;;;25.93;;
14945;SDS011;7567;50.916;6.900;2022-09-30T07:58:57;30.30;;;26.23;;
14945;SDS011;7567;50.916;6.900;2022-09-30T08:01:26;31.13;;;26.20;;
14945;SDS011;7567;50.916;6.900;2022-09-30T08:03:53;33.77;;;25.83;;
14945;SDS011;7567;50.916;6.900;2022-09-30T08:06:20;26.87;;;22.97;;
14945;SDS011;7567;50.916;6.900;2022-09-30T08:08:53;28.63;;;24.47;;
14945;SDS011;7567;50.916;6.900;2022-09-30T08:11:20;31.07;;;23.90;;
14945;SDS011;7567;50.916;6.900;2022-09-30T08:13:53;32.20;;;25.47;;
14945;SDS011;7567;50.916;6.900;2022-09-30T08:16:20;26.87;;;23.47;;
14945;SDS011;7567;50.916;6.900;2022-09-30T08:18:48;29.07;;;25.70;;
14945;SDS011;7567;50.916;6.900;2022-09-30T08:21:17;29.07;;;24.27;;
14945;SDS011;7567;50.916;6.900;2022-09-30T08:23:43;28.13;;;24.23;;
14945;SDS011;7567;50.916;6.900;2022-09-30T08:26:10;28.73;;;24.40;;
14945;SDS011;7567;50.916;6.900;2022-09-30T08:28:37;25.63;;;22.93;;
14945;SDS011;7567;50.916;6.900;2022-09-30T08:33:32;25.03;;;22.27;;
14945;SDS011;7567;50.916;6.900;2022-09-30T08:36:06;25.43;;;22.27;;
14945;SDS011;7567;50.916;6.900;2022-09-30T08:38:36;27.03;;;22.17;;
14945;SDS011;7567;50.916;6.900;2022-09-30T08:47:21;21.85;;;19.35;;
14945;SDS011;7567;50.916;6.900;2022-09-30T08:52:37;19.73;;;16.42;;
14945;SDS011;7567;50.916;6.900;2022-09-30T08:55:07;17.25;;;15.45;;
14945;SDS011;7567;50.916;6.900;2022-09-30T08:57:59;17.25;;;15.45;;
14945;SDS011;7567;50.916;6.900;2022-09-30T09:00:28;18.60;;;15.88;;
14945;SDS011;7567;50.916;6.900;2022-09-30T09:02:55;18.95;;;15.38;;
14945;SDS011;7567;50.916;6.900;2022-09-30T09:22:23;13.27;;;11.93;;
14945;SDS011;7567;50.916;6.900;2022-09-30T09:24:52;15.80;;;12.05;;
14945;SDS011;7567;50.916;6.900;2022-09-30T09:27:24;12.27;;;11.00;;
14945;SDS011;7567;50.916;6.900;2022-09-30T09:32:26;14.32;;;10.48;;
14945;SDS011;7567;50.916;6.900;2022-09-30T09:34:58;13.65;;;11.20;;
14945;SDS011;7567;50.916;6.900;2022-09-30T09:37:38;12.40;;;9.80;;
14945;SDS011;7567;50.916;6.900;2022-09-30T09:40:39;10.75;;;9.73;;
14945;SDS011;7567;50.916;6.900;2022-09-30T09:48:49;10.88;;;9.00;;
14945;SDS011;7567;50.916;6.900;2022-09-30T09:51:52;11.02;;;9.52;;
14945;SDS011;7567;50.916;6.900;2022-09-30T09:54:43;11.20;;;8.82;;
14945;SDS011;7567;50.916;6.900;2022-09-30T09:57:13;11.90;;;9.13;;
14945;SDS011;7567;50.916;6.900;2022-09-30T10:02:57;9.80;;;8.80;;
14945;SDS011;7567;50.916;6.900;2022-09-30T10:05:28;10.32;;;8.52;;
14945;SDS011;7567;50.916;6.900;2022-09-30T10:10:43;8.43;;;7.53;;
14945;SDS011;7567;50.916;6.900;2022-09-30T10:13:19;10.80;;;8.48;;
14945;SDS011;7567;50.916;6.900;2022-09-30T10:15:51;8.40;;;7.13;;
14945;SDS011;7567;50.916;6.900;2022-09-30T10:18:20;9.10;;;7.70;;
14945;SDS011;7567;50.916;6.900;2022-09-30T10:20:51;10.35;;;7.63;;
14945;SDS011;7567;50.916;6.900;2022-09-30T10:23:21;7.97;;;7.10;;
14945;SDS011;7567;50.916;6.900;2022-09-30T10:28:33;10.15;;;6.88;;
14945;SDS011;7567;50.916;6.900;2022-09-30T10:31:16;9.52;;;6.18;;
14945;SDS011;7567;50.916;6.900;2022-09-30T10:33:56;10.23;;;5.85;;
14945;SDS011;7567;50.916;6.900;2022-09-30T10:36:43;11.10;;;6.45;;
14945;SDS011;7567;50.916;6.900;2022-09-30T10:39:20;9.65;;;6.32;;
14945;SDS011;7567;50.916;6.900;2022-09-30T10:41:48;8.85;;;5.88;;
14945;SDS011;7567;50.916;6.900;2022-09-30T10:44:23;9.07;;;5.88;;
14945;SDS011;7567;50.916;6.900;2022-09-30T10:46:50;7.43;;;5.70;;
14945;SDS011;7567;50.916;6.900;2022-09-30T10:49:25;6.53;;;5.45;;
14945;SDS011;7567;50.916;6.900;2022-09-30T10:51:51;8.25;;;5.97;;
14945;SDS011;7567;50.916;6.900;2022-09-30T10:55:24;7.65;;;5.70;;
14945;SDS011;7567;50.916;6.900;2022-09-30T10:57:17;7.22;;;5.70;;
14945;SDS011;7567;50.916;6.900;2022-09-30T10:59:43;7.90;;;5.25;;
14945;SDS011;7567;50.916;6.900;2022-09-30T11:08:56;5.63;;;4.85;;
14945;SDS011;7567;50.916;6.900;2022-09-30T11:11:32;5.28;;;4.43;;
14945;SDS011;7567;50.916;6.900;2022-09-30T11:17:01;5.10;;;4.15;;
14945;SDS011;7567;50.916;6.900;2022-09-30T11:19:50;6.88;;;4.97;;
14945;SDS011;7567;50.916;6.900;2022-09-30T11:36:42;5.43;;;3.80;;
14945;SDS011;7567;50.916;6.900;2022-09-30T11:39:30;5.82;;;3.95;;
14945;SDS011;7567;50.916;6.900;2022-09-30T11:42:20;5.22;;;4.07;;
14945;SDS011;7567;50.916;6.900;2022-09-30T11:45:13;5.03;;;3.33;;
14945;SDS011;7567;50.916;6.900;2022-09-30T11:50:49;5.85;;;3.30;;
14945;SDS011;7567;50.916;6.900;2022-09-30T11:59:06;6.22;;;3.50;;
14945;SDS011;7567;50.916;6.900;2022-09-30T12:01:42;6.28;;;3.85;;
14945;SDS011;7567;50.916;6.900;2022-09-30T12:04:15;5.10;;;3.17;;
14945;SDS011;7567;50.916;6.900;2022-09-30T12:09:34;3.35;;;2.65;;
14945;SDS011;7567;50.916;6.900;2022-09-30T12:12:11;4.05;;;2.70;;
14945;SDS011;7567;50.916;6.900;2022-09-30T12:14:59;4.95;;;2.22;;
14945;SDS011;7567;50.916;6.900;2022-09-30T12:19:57;2.78;;;1.60;;
14945;SDS011;7567;50.916;6.900;2022-09-30T12:22:37;2.13;;;1.50;;
14945;SDS011;7567;50.916;6.900;2022-09-30T12:25:13;2.80;;;1.85;;
14945;SDS011;7567;50.916;6.900;2022-09-30T12:27:45;3.42;;;1.42;;
14945;SDS011;7567;50.916;6.900;2022-09-30T12:30:18;2.40;;;1.17;;
14945;SDS011;7567;50.916;6.900;2022-09-30T12:38:52;5.15;;;1.63;;
14945;SDS011;7567;50.916;6.900;2022-09-30T12:49:43;3.10;;;1.88;;
14945;SDS011;7567;50.916;6.900;2022-09-30T12:52:12;4.50;;;1.77;;
14945;SDS011;7567;50.916;6.900;2022-09-30T12:54:41;2.88;;;1.50;;
14945;SDS011;7567;50.916;6.900;2022-09-30T12:57:20;2.47;;;1.35;;
14945;SDS011;7567;50.916;6.900;2022-09-30T12:59:54;5.45;;;1.50;;
14945;SDS011;7567;50.916;6.900;2022-09-30T13:02:29;2.85;;;1.80;;
14945;SDS011;7567;50.916;6.900;2022-09-30T13:10:43;4.35;;;1.40;;
14945;SDS011;7567;50.916;6.900;2022-09-30T13:15:53;1.70;;;1.50;;
14945;SDS011;7567;50.916;6.900;2022-09-30T13:23:38;3.10;;;1.20;;
14945;SDS011;7567;50.916;6.900;2022-09-30T13:28:47;5.00;;;1.50;;
14945;SDS011;7567;50.916;6.900;2022-09-30T13:31:15;2.50;;;1.20;;
14945;SDS011;7567;50.916;6.900;2022-09-30T13:33:45;4.63;;;1.80;;
14945;SDS011;7567;50.916;6.900;2022-09-30T13:39:07;2.00;;;1.27;;
14945;SDS011;7567;50.916;6.900;2022-09-30T13:44:58;1.52;;;1.40;;
14945;SDS011;7567;50.916;6.900;2022-09-30T13:47:38;3.90;;;1.38;;
14945;SDS011;7567;50.916;6.900;2022-09-30T13:50:12;1.60;;;1.10;;
14945;SDS011;7567;50.916;6.900;2022-09-30T13:52:42;2.75;;;1.50;;
14945;SDS011;7567;50.916;6.900;2022-09-30T13:55:16;3.75;;;1.35;;
14945;SDS011;7567;50.916;6.900;2022-09-30T13:57:50;2.58;;;1.15;;
14945;SDS011;7567;50.916;6.900;2022-09-30T14:03:35;2.67;;;1.30;;
14945;SDS011;7567;50.916;6.900;2022-09-30T14:09:16;2.88;;;1.25;;
14945;SDS011;7567;50.916;6.900;2022-09-30T14:17:56;1.23;;;1.13;;
14945;SDS011;7567;50.916;6.900;2022-09-30T14:20:35;2.15;;;1.13;;
14945;SDS011;7567;50.916;6.900;2022-09-30T14:23:14;1.88;;;1.17;;
14945;SDS011;7567;50.916;6.900;2022-09-30T14:25:44;2.60;;;1.10;;
14945;SDS011;7567;50.916;6.900;2022-09-30T14:28:31;1.48;;;1.30;;
14945;SDS011;7567;50.916;6.900;2022-09-30T14:31:12;3.03;;;1.50;;
14945;SDS011;7567;50.916;6.900;2022-09-30T14:33:39;4.75;;;1.45;;
14945;SDS011;7567;50.916;6.900;2022-09-30T14:36:12;2.40;;;1.42;;
14945;SDS011;7567;50.916;6.900;2022-09-30T14:38:42;1.95;;;1.33;;
14945;SDS011;7567;50.916;6.900;2022-09-30T14:41:18;1.73;;;1.10;;
14945;SDS011;7567;50.916;6.900;2022-09-30T14:43:47;2.92;;;1.65;;
14945;SDS011;7567;50.916;6.900;2022-09-30T14:46:33;1.30;;;1.20;;
14945;SDS011;7567;50.916;6.900;2022-09-30T14:49:08;2.63;;;1.33;;
14945;SDS011;7567;50.916;6.900;2022-09-30T14:51:43;2.45;;;1.45;;
14945;SDS011;7567;50.916;6.900;2022-09-30T14:54:18;1.90;;;1.25;;
14945;SDS011;7567;50.916;6.900;2022-09-30T14:56:45;1.50;;;1.33;;
14945;SDS011;7567;50.916;6.900;2022-09-30T15:01:45;1.67;;;1.30;;
14945;SDS011;7567;50.916;6.900;2022-09-30T15:04:29;1.60;;;1.40;;
14945;SDS011;7567;50.916;6.900;2022-09-30T15:06:57;1.92;;;1.27;;
14945;SDS011;7567;50.916;6.900;2022-09-30T15:09:28;1.60;;;1.20;;
14945;SDS011;7567;50.916;6.900;2022-09-30T15:12:05;3.17;;;1.58;;
14945;SDS011;7567;50.916;6.900;2022-09-30T15:14:53;2.05;;;1.40;;
14945;SDS011;7567;50.916;6.900;2022-09-30T15:17:33;1.75;;;1.40;;
14945;SDS011;7567;50.916;6.900;2022-09-30T15:20:02;4.47;;;1.90;;
14945;SDS011;7567;50.916;6.900;2022-09-30T15:22:48;4.57;;;1.70;;
14945;SDS011;7567;50.916;6.900;2022-09-30T15:25:17;2.03;;;1.50;;
14945;SDS011;7567;50.916;6.900;2022-09-30T15:27:44;1.60;;;1.42;;
14945;SDS011;7567;50.916;6.900;2022-09-30T15:32:39;2.97;;;1.48;;
14945;SDS011;7567;50.916;6.900;2022-09-30T15:35:05;1.30;;;1.00;;
14945;SDS011;7567;50.916;6.900;2022-09-30T15:37:36;1.30;;;1.00;;
14945;SDS011;7567;50.916;6.900;2022-09-30T15:40:02;2.33;;;1.25;;
14945;SDS011;7567;50.916;6.900;2022-09-30T15:42:56;2.35;;;1.27;;
14945;SDS011;7567;50.916;6.900;2022-09-30T15:45:30;4.05;;;1.25;;
14945;SDS011;7567;50.916;6.900;2022-09-30T15:50:43;1.10;;;0.90;;
14945;SDS011;7567;50.916;6.900;2022-09-30T15:59:26;4.50;;;1.15;;
14945;SDS011;7567;50.916;6.900;2022-09-30T16:01:44;4.22;;;1.20;;
14945;SDS011;7567;50.916;6.900;2022-09-30T16:12:01;1.45;;;1.13;;
14945;SDS011;7567;50.916;6.900;2022-09-30T16:14:40;1.85;;;1.27;;
14945;SDS011;7567;50.916;6.900;2022-09-30T16:17:14;1.10;;;1.00;;
14945;SDS011;7567;50.916;6.900;2022-09-30T16:19:51;1.63;;;1.10;;
14945;SDS011;7567;50.916;6.900;2022-09-30T16:25:11;1.38;;;1.05;;
14945;SDS011;7567;50.916;6.900;2022-09-30T16:27:57;1.35;;;1.00;;
14945;SDS011;7567;50.916;6.900;2022-09-30T16:30:33;2.75;;;1.13;;
14945;SDS011;7567;50.916;6.900;2022-09-30T16:33:02;2.15;;;1.25;;
14945;SDS011;7567;50.916;6.900;2022-09-30T16:35:30;2.63;;;1.08;;
14945;SDS011;7567;50.916;6.900;2022-09-30T16:37:58;1.45;;;1.00;;
14945;SDS011;7567;50.916;6.900;2022-09-30T16:40:25;1.25;;;1.15;;
14945;SDS011;7567;50.916;6.900;2022-09-30T16:42:53;1.33;;;1.17;;
14945;SDS011;7567;50.916;6.900;2022-09-30T16:45:20;2.53;;;1.23;;
14945;SDS011;7567;50.916;6.900;2022-09-30T16:47:46;1.30;;;1.13;;
14945;SDS011;7567;50.916;6.900;2022-09-30T16:52:53;1.75;;;1.30;;
14945;SDS011;7567;50.916;6.900;2022-09-30T16:55:19;3.95;;;1.55;;
14945;SDS011;7567;50.916;6.900;2022-09-30T16:57:45;3.45;;;1.55;;
14945;SDS011;7567;50.916;6.900;2022-09-30T17:00:12;3.40;;;1.60;;
14945;SDS011;7567;50.916;6.900;2022-09-30T17:02:43;3.38;;;1.30;;
14945;SDS011;7567;50.916;6.900;2022-09-30T17:05:14;1.98;;;1.40;;
14945;SDS011;7567;50.916;6.900;2022-09-30T17:07:43;4.35;;;1.45;;
14945;SDS011;7567;50.916;6.900;2022-09-30T17:10:15;3.22;;;1.55;;
14945;SDS011;7567;50.916;6.900;2022-09-30T17:12:54;1.60;;;1.50;;
14945;SDS011;7567;50.916;6.900;2022-09-30T17:15:22;2.67;;;1.45;;
14945;SDS011;7567;50.916;6.900;2022-09-30T17:17:48;3.15;;;1.83;;
14945;SDS011;7567;50.916;6.900;2022-09-30T17:20:14;3.47;;;2.05;;
14945;SDS011;7567;50.916;6.900;2022-09-30T17:22:40;4.63;;;1.67;;
14945;SDS011;7567;50.916;6.900;2022-09-30T17:25:06;4.35;;;2.10;;
14945;SDS011;7567;50.916;6.900;2022-09-30T17:27:32;4.25;;;1.70;;
14945;SDS011;7567;50.916;6.900;2022-09-30T17:29:58;5.85;;;1.88;;
14945;SDS011;7567;50.916;6.900;2022-09-30T17:32:25;1.80;;;1.60;;
14945;SDS011;7567;50.916;6.900;2022-09-30T17:34:51;3.50;;;1.63;;
14945;SDS011;7567;50.916;6.900;2022-09-30T17:37:17;2.65;;;1.80;;
14945;SDS011;7567;50.916;6.900;2022-09-30T17:39:44;2.42;;;1.52;;
14945;SDS011;7567;50.916;6.900;2022-09-30T17:42:13;3.05;;;1.65;;
14945;SDS011;7567;50.916;6.900;2022-09-30T17:44:59;1.85;;;1.70;;
14945;SDS011;7567;50.916;6.900;2022-09-30T17:47:25;4.10;;;1.70;;
14945;SDS011;7567;50.916;6.900;2022-09-30T17:49:51;5.20;;;1.58;;
14945;SDS011;7567;50.916;6.900;2022-09-30T17:52:17;2.53;;;1.65;;
14945;SDS011;7567;50.916;6.900;2022-09-30T17:54:43;2.22;;;1.58;;
14945;SDS011;7567;50.916;6.900;2022-09-30T17:57:09;2.30;;;1.65;;
14945;SDS011;7567;50.916;6.900;2022-09-30T17:59:35;1.48;;;1.35;;
14945;SDS011;7567;50.916;6.900;2022-09-30T18:02:01;2.15;;;1.60;;
14945;SDS011;7567;50.916;6.900;2022-09-30T18:04:27;4.75;;;2.00;;
14945;SDS011;7567;50.916;6.900;2022-09-30T18:06:53;1.98;;;1.60;;
14945;SDS011;7567;50.916;6.900;2022-09-30T18:09:20;4.43;;;2.10;;
14945;SDS011;7567;50.916;6.900;2022-09-30T18:11:46;4.47;;;1.88;;
14945;SDS011;7567;50.916;6.900;2022-09-30T18:14:12;5.03;;;1.83;;
14945;SDS011;7567;50.916;6.900;2022-09-30T18:16:39;3.05;;;1.85;;
14945;SDS011;7567;50.916;6.900;2022-09-30T18:19:05;2.95;;;1.75;;
14945;SDS011;7567;50.916;6.900;2022-09-30T18:21:32;5.85;;;2.05;;
14945;SDS011;7567;50.916;6.900;2022-09-30T18:23:59;2.85;;;1.92;;
14945;SDS011;7567;50.916;6.900;2022-09-30T18:26:27;3.53;;;2.05;;
14945;SDS011;7567;50.916;6.900;2022-09-30T18:28:54;2.47;;;1.90;;
14945;SDS011;7567;50.916;6.900;2022-09-30T18:31:22;2.70;;;2.10;;
14945;SDS011;7567;50.916;6.900;2022-09-30T18:34:07;2.70;;;1.90;;
14945;SDS011;7567;50.916;6.900;2022-09-30T18:36:36;3.40;;;2.00;;
14945;SDS011;7567;50.916;6.900;2022-09-30T18:39:02;2.47;;;2.17;;
14945;SDS011;7567;50.916;6.900;2022-09-30T18:41:28;2.20;;;2.00;;
14945;SDS011;7567;50.916;6.900;2022-09-30T18:43:56;4.30;;;2.00;;